createdAt,value
2022-08-30T00:03:46.178Z,6.57
2022-08-30T00:08:41.827Z,7.28
2022-08-30T00:13:35.688Z,6.75
2022-08-30T00:18:32.047Z,6.65
2022-08-30T00:23:26.042Z,7.07
2022-08-30T00:28:25.175Z,6.63
2022-08-30T00:33:21.167Z,7.05
2022-08-30T00:38:15.628Z,6.82
2022-08-30T00:43:15.926Z,7.65
2022-08-30T00:48:10.945Z,7.43
2022-08-30T00:53:08.300Z,7.68
2022-08-30T00:58:05.150Z,7.55
2022-08-30T01:03:01.991Z,7.65
2022-08-30T01:07:58.958Z,7.03
2022-08-30T01:12:55.135Z,7.85
2022-08-30T01:17:54.410Z,7.03
2022-08-30T01:23:04.171Z,7.68
2022-08-30T01:28:04.714Z,7.88
2022-08-30T01:33:00.371Z,8.32
2022-08-30T01:37:53.662Z,7.85
2022-08-30T01:42:49.093Z,7.53
2022-08-30T01:47:42.513Z,7.70
2022-08-30T01:52:36.100Z,9.07
2022-08-30T01:57:29.537Z,8.00
2022-08-30T02:02:28.190Z,8.10
2022-08-30T02:07:21.722Z,7.83
2022-08-30T02:12:15.490Z,8.25
2022-08-30T02:17:11.853Z,8.27
2022-08-30T02:22:07.015Z,9.13
2022-08-30T02:27:00.345Z,8.77
2022-08-30T02:32:02.675Z,8.32
2022-08-30T02:36:56.517Z,7.85
2022-08-30T02:41:51.460Z,8.48
2022-08-30T02:46:45.611Z,8.15
2022-08-30T02:51:39.913Z,8.80
2022-08-30T02:56:33.248Z,8.88
2022-08-30T03:01:29.428Z,8.80
2022-08-30T03:06:22.972Z,8.27
2022-08-30T03:11:16.403Z,8.80
2022-08-30T03:16:10.511Z,9.18
2022-08-30T03:21:11.551Z,9.10
2022-08-30T03:26:05.243Z,9.43
2022-08-30T03:30:58.521Z,9.52
2022-08-30T03:35:51.793Z,9.52
2022-08-30T03:40:46.840Z,9.30
2022-08-30T03:45:40.138Z,9.57
2022-08-30T03:50:35.374Z,9.15
2022-08-30T03:55:29.975Z,9.63
2022-08-30T04:00:25.088Z,9.90
2022-08-30T04:05:18.809Z,9.00
2022-08-30T04:10:12.767Z,9.10
2022-08-30T04:15:07.782Z,9.25
2022-08-30T04:20:02.465Z,9.27
2022-08-30T04:24:55.774Z,9.45
2022-08-30T04:29:49.608Z,9.35
2022-08-30T04:34:43.050Z,10.52
2022-08-30T04:39:38.013Z,10.55
2022-08-30T04:44:33.011Z,10.10
2022-08-30T04:49:29.782Z,10.13
2022-08-30T04:54:23.357Z,10.98
2022-08-30T04:59:18.067Z,11.57
2022-08-30T05:04:11.444Z,11.02
2022-08-30T05:09:06.498Z,11.10
2022-08-30T05:14:00.311Z,11.88
2022-08-30T05:18:55.955Z,12.77
2022-08-30T05:23:49.952Z,11.18
2022-08-30T05:28:43.364Z,12.00
2022-08-30T05:33:38.832Z,11.68
2022-08-30T05:38:33.880Z,11.68
2022-08-30T05:43:30.005Z,12.50
2022-08-30T05:48:23.712Z,11.80
2022-08-30T05:53:17.357Z,12.57
2022-08-30T05:58:12.181Z,12.77
2022-08-30T06:03:05.598Z,12.63
2022-08-30T06:07:58.884Z,10.95
2022-08-30T06:12:52.278Z,11.25
2022-08-30T06:17:47.126Z,11.50
2022-08-30T06:22:40.481Z,11.48
2022-08-30T06:27:33.958Z,11.65
2022-08-30T06:32:27.275Z,9.93
2022-08-30T06:37:29.543Z,11.02
2022-08-30T06:42:24.433Z,10.02
2022-08-30T06:47:17.710Z,11.15
2022-08-30T06:52:11.287Z,10.68
2022-08-30T06:57:06.338Z,11.07
2022-08-30T07:02:00.042Z,11.48
2022-08-30T07:06:53.477Z,10.88
2022-08-30T07:11:47.078Z,11.82
2022-08-30T07:16:44.529Z,10.73
2022-08-30T07:21:43.459Z,11.73
2022-08-30T07:26:41.439Z,11.38
2022-08-30T07:31:36.393Z,11.45
2022-08-30T07:36:31.213Z,11.57
2022-08-30T07:41:27.717Z,11.43
2022-08-30T07:46:25.372Z,11.48
2022-08-30T07:51:21.814Z,10.65
2022-08-30T07:56:17.068Z,13.75
2022-08-30T08:01:12.622Z,14.52
2022-08-30T08:06:08.440Z,12.50
2022-08-30T08:11:09.776Z,13.32
2022-08-30T08:16:04.880Z,13.32
2022-08-30T08:20:58.325Z,11.02
2022-08-30T08:25:51.863Z,12.93
2022-08-30T08:30:48.246Z,14.90
2022-08-30T08:35:43.441Z,11.85
2022-08-30T08:40:44.533Z,11.68
2022-08-30T08:45:48.627Z,10.55
2022-08-30T08:51:02.814Z,10.45
2022-08-30T08:55:56.275Z,10.02
2022-08-30T09:00:49.560Z,15.70
2022-08-30T09:05:44.767Z,9.18
2022-08-30T09:10:50.802Z,9.15
2022-08-30T09:15:44.618Z,9.25
2022-08-30T09:20:41.397Z,9.18
2022-08-30T09:25:41.278Z,9.13
2022-08-30T09:30:40.365Z,9.57
2022-08-30T09:35:37.306Z,8.77
2022-08-30T09:40:38.672Z,9.15
2022-08-30T09:45:34.981Z,8.38
2022-08-30T09:50:36.580Z,8.57
2022-08-30T09:55:46.800Z,8.90
2022-08-30T10:00:44.791Z,7.82
2022-08-30T10:05:52.064Z,7.93
2022-08-30T10:10:52.646Z,9.05
2022-08-30T10:15:50.656Z,8.40
2022-08-30T10:25:54.515Z,7.97
2022-08-30T10:30:59.326Z,7.38
2022-08-30T10:35:58.302Z,7.35
2022-08-30T10:41:19.831Z,6.65
2022-08-30T10:46:21.248Z,7.00
2022-08-30T10:51:24.092Z,6.43
2022-08-30T10:56:21.259Z,6.95
2022-08-30T11:01:38.686Z,6.77
2022-08-30T11:06:46.427Z,7.03
2022-08-30T11:12:00.532Z,6.05
2022-08-30T11:16:57.083Z,6.35
2022-08-30T11:21:52.543Z,6.13
2022-08-30T11:27:11.266Z,6.40
2022-08-30T11:32:24.061Z,5.95
2022-08-30T11:37:37.491Z,5.80
2022-08-30T11:42:37.332Z,6.07
2022-08-30T11:47:40.846Z,5.57
2022-08-30T11:52:56.664Z,6.15
2022-08-30T11:57:58.588Z,6.53
2022-08-30T12:02:59.137Z,5.82
2022-08-30T12:08:03.019Z,5.90
2022-08-30T12:12:57.362Z,5.85
2022-08-30T12:18:16.697Z,5.85
2022-08-30T12:23:22.449Z,5.82
2022-08-30T12:28:26.210Z,5.43
2022-08-30T12:33:29.376Z,5.60
2022-08-30T12:38:27.462Z,6.05
2022-08-30T12:43:38.932Z,5.75
2022-08-30T12:48:38.529Z,5.30
2022-08-30T12:53:37.215Z,5.68
2022-08-30T12:58:43.553Z,5.22
2022-08-30T13:03:38.180Z,6.10
2022-08-30T13:08:38.140Z,5.85
2022-08-30T13:13:39.253Z,5.40
2022-08-30T13:18:32.658Z,5.65
2022-08-30T13:23:30.666Z,6.40
2022-08-30T13:28:25.354Z,6.05
2022-08-30T13:33:19.107Z,6.60
2022-08-30T13:38:17.429Z,5.40
2022-08-30T13:43:10.719Z,5.72
2022-08-30T13:48:10.808Z,6.13
2022-08-30T13:53:04.361Z,5.80
2022-08-30T13:57:58.050Z,5.85
2022-08-30T14:02:54.153Z,5.95
2022-08-30T14:13:02.542Z,5.45
2022-08-30T14:18:01.637Z,5.45
2022-08-30T14:29:15.610Z,4.75
2022-08-30T14:34:11.446Z,5.35
2022-08-30T14:39:09.580Z,5.00
2022-08-30T14:44:02.903Z,4.90
2022-08-30T14:48:56.250Z,4.80
2022-08-30T14:53:53.204Z,4.72
2022-08-30T14:58:49.139Z,4.67
2022-08-30T15:03:42.991Z,5.20
2022-08-30T15:08:38.048Z,5.03
2022-08-30T15:13:32.712Z,4.82
2022-08-30T15:18:27.768Z,5.10
2022-08-30T15:23:22.844Z,4.75
2022-08-30T15:28:18.397Z,4.65
2022-08-30T15:33:12.018Z,4.93
2022-08-30T15:38:06.822Z,5.55
2022-08-30T15:43:00.086Z,6.03
2022-08-30T15:47:53.309Z,5.20
2022-08-30T15:52:46.659Z,4.93
2022-08-30T15:57:41.529Z,5.57
2022-08-30T16:02:35.086Z,5.80
2022-08-30T16:07:28.469Z,5.65
2022-08-30T16:12:23.557Z,5.53
2022-08-30T16:17:19.038Z,5.63
2022-08-30T16:22:14.501Z,5.28
2022-08-30T16:27:21.138Z,5.55
2022-08-30T16:32:14.736Z,5.63
2022-08-30T16:37:09.546Z,5.80
2022-08-30T16:42:03.494Z,6.50
2022-08-30T16:47:00.058Z,7.55
2022-08-30T16:51:53.521Z,6.68
2022-08-30T16:56:48.184Z,5.50
2022-08-30T17:01:56.091Z,6.03
2022-08-30T17:06:52.706Z,7.03
2022-08-30T17:11:52.381Z,6.80
2022-08-30T17:16:58.086Z,7.80
2022-08-30T17:22:01.536Z,8.47
2022-08-30T17:26:58.371Z,8.00
2022-08-30T17:31:54.689Z,9.63
2022-08-30T17:36:51.681Z,8.27
2022-08-30T17:41:50.483Z,7.85
2022-08-30T17:46:48.900Z,7.25
2022-08-30T17:51:47.723Z,7.78
2022-08-30T17:56:51.075Z,7.57
2022-08-30T18:01:57.725Z,6.85
2022-08-30T18:06:55.796Z,7.18
2022-08-30T18:11:56.303Z,8.23
2022-08-30T18:16:54.633Z,9.88
2022-08-30T18:21:48.315Z,7.97
2022-08-30T18:26:45.265Z,7.53
2022-08-30T18:31:38.610Z,7.00
2022-08-30T18:36:35.701Z,7.07
2022-08-30T18:41:42.909Z,7.60
2022-08-30T18:46:45.242Z,6.78
2022-08-30T18:51:56.369Z,6.32
2022-08-30T18:56:55.359Z,6.60
2022-08-30T19:01:51.354Z,6.25
2022-08-30T19:06:47.445Z,6.90
2022-08-30T19:11:45.179Z,5.85
2022-08-30T19:16:39.622Z,6.55
2022-08-30T19:21:40.899Z,6.25
2022-08-30T19:26:39.760Z,5.85
2022-08-30T19:31:41.711Z,6.30
2022-08-30T19:36:35.273Z,6.10
2022-08-30T19:41:29.764Z,6.07
2022-08-30T19:46:28.258Z,6.82
2022-08-30T19:51:23.819Z,6.38
2022-08-30T19:56:20.703Z,6.03
2022-08-30T20:01:33.083Z,6.82
2022-08-30T20:06:33.879Z,6.43
2022-08-30T20:11:34.378Z,6.43
2022-08-30T20:16:33.168Z,6.68
2022-08-30T20:21:32.419Z,6.25
2022-08-30T20:26:34.252Z,6.53
2022-08-30T20:31:33.824Z,7.25
2022-08-30T20:36:29.361Z,6.20
2022-08-30T20:41:29.726Z,6.72
2022-08-30T20:46:23.045Z,6.63
2022-08-30T20:51:19.499Z,6.90
2022-08-30T20:56:13.589Z,7.00
2022-08-30T21:01:10.774Z,6.90
2022-08-30T21:06:04.226Z,7.07
2022-08-30T21:10:57.676Z,6.78
2022-08-30T21:15:57.644Z,7.22
2022-08-30T21:20:57.606Z,7.15
2022-08-30T21:25:52.960Z,7.13
2022-08-30T21:30:49.039Z,7.07
2022-08-30T21:35:59.991Z,6.80
2022-08-30T21:40:57.096Z,7.18
2022-08-30T21:45:55.325Z,7.70
2022-08-30T21:50:48.732Z,7.55
2022-08-30T21:55:43.665Z,6.97
2022-08-30T22:00:40.878Z,6.93
2022-08-30T22:05:36.946Z,6.85
2022-08-30T22:10:33.207Z,6.60
2022-08-30T22:15:32.113Z,7.00
2022-08-30T22:20:27.563Z,6.75
2022-08-30T22:25:23.977Z,6.05
2022-08-30T22:30:17.834Z,6.63
2022-08-30T22:35:11.697Z,6.60
2022-08-30T22:40:07.295Z,6.93
2022-08-30T22:45:00.605Z,6.43
2022-08-30T22:49:54.062Z,6.20
2022-08-30T22:54:48.342Z,6.22
2022-08-30T22:59:43.125Z,6.57
2022-08-30T23:04:37.707Z,6.80
2022-08-30T23:09:31.365Z,5.88
2022-08-30T23:14:24.738Z,6.43
2022-08-30T23:19:19.583Z,6.45
2022-08-30T23:24:30.411Z,5.97
2022-08-30T23:29:41.310Z,6.07
2022-08-30T23:34:54.054Z,6.55
2022-08-30T23:40:04.797Z,6.35
2022-08-30T23:45:15.660Z,6.40
2022-08-30T23:50:27.989Z,7.13
2022-08-30T23:55:38.622Z,6.80
